Time;durP1;ratioP1;P1;durP2;ratioP2;P2;SDS_P1;SDS_P2;PMS_P1;PMS_P2;Temp;Humidity;BMP_temperature;BMP_pressure;BME280_temperature;BME280_humidity;BME280_pressure;Samples;Min_cycle;Max_cycle;Signal;HPM_P1;HPM_P2
2022/10/30 00:00:50;;;;;;;18.42;3.75;;;18.30;99.90;;;17.74;100.00;97905.94;4960235;28;20054;-69
2022/10/30 00:03:18;;;;;;;11.15;2.88;;;18.30;99.90;;;17.69;100.00;97898.38;4965796;28;20050;-70
2022/10/30 00:05:48;;;;;;;18.23;3.30;;;18.20;99.90;;;17.60;100.00;97895.53;4965250;28;20078;-70
2022/10/30 00:08:18;;;;;;;13.32;2.78;;;18.10;99.90;;;17.45;100.00;97900.03;4961020;28;20059;-70
2022/10/30 00:10:49;;;;;;;15.10;3.05;;;18.00;99.90;;;17.45;100.00;97905.28;4962475;28;20055;-69
2022/10/30 00:13:16;;;;;;;11.32;3.20;;;18.00;99.90;;;17.12;100.00;97901.25;4966871;28;20054;-69
2022/10/30 00:16:07;;;;;;;11.70;3.22;;;17.80;99.90;;;17.04;100.00;97898.28;4966207;28;20501;-70
2022/10/30 00:18:38;;;;;;;13.93;3.45;;;17.70;99.90;;;17.07;100.00;97895.44;4965177;28;20053;-69
2022/10/30 00:21:12;;;;;;;15.88;3.70;;;17.60;99.90;;;16.92;100.00;97892.88;4964920;28;20054;-69
2022/10/30 00:23:48;;;;;;;16.33;2.95;;;17.50;99.90;;;16.85;100.00;97888.09;4959403;28;20054;-70
2022/10/30 00:26:17;;;;;;;13.07;2.90;;;17.40;99.90;;;16.78;100.00;97881.53;4966568;28;20054;-71
2022/10/30 00:28:48;;;;;;;15.52;3.03;;;17.30;99.90;;;16.47;100.00;97880.84;4964922;28;20062;-69
2022/10/30 00:31:15;;;;;;;20.67;3.55;;;17.20;99.90;;;16.33;100.00;97879.06;4967680;28;20058;-69
2022/10/30 00:33:42;;;;;;;15.07;4.00;;;17.10;99.90;;;16.15;100.00;97882.78;4966924;28;20046;-70
2022/10/30 00:36:09;;;;;;;15.10;3.03;;;17.00;99.90;;;16.05;100.00;97869.41;4968212;28;20058;-69
2022/10/30 00:38:35;;;;;;;16.02;2.95;;;16.90;99.90;;;16.01;100.00;97870.50;4968675;28;20050;-70
2022/10/30 00:41:03;;;;;;;16.15;3.28;;;16.80;99.90;;;16.12;100.00;97870.72;4969780;28;20051;-69
2022/10/30 00:43:33;;;;;;;10.27;3.38;;;16.70;99.90;;;16.11;100.00;97871.66;4969439;28;20130;-70
2022/10/30 00:46:12;;;;;;;7.85;2.55;;;16.70;99.90;;;16.09;100.00;97866.50;4968195;28;20496;-69
2022/10/30 00:48:41;;;;;;;11.75;3.40;;;16.60;99.90;;;16.02;100.00;97872.22;4965973;28;20449;-69
2022/10/30 00:51:10;;;;;;;13.32;2.53;;;16.60;99.90;;;16.07;100.00;97857.06;4968075;28;20058;-69
2022/10/30 00:53:38;;;;;;;11.90;3.08;;;16.70;99.90;;;15.97;100.00;97858.56;4979921;28;20138;-70
2022/10/30 00:56:07;;;;;;;15.00;3.55;;;16.60;99.90;;;15.95;100.00;97857.81;4967100;28;20402;-69
2022/10/30 00:58:45;;;;;;;17.35;3.78;;;16.60;99.90;;;16.02;100.00;97853.88;4982415;28;20055;-69
2022/10/30 01:01:19;;;;;;;11.88;2.85;;;16.60;99.90;;;16.03;100.00;97847.69;4966135;28;20516;-69
2022/10/30 01:03:53;;;;;;;14.93;3.35;;;16.70;99.90;;;16.12;100.00;97847.13;4980743;28;20062;-69
2022/10/30 01:06:20;;;;;;;10.80;2.53;;;16.70;99.90;;;16.10;100.00;97849.88;4983244;28;20058;-68
2022/10/30 01:08:47;;;;;;;14.30;3.33;;;16.60;99.90;;;16.20;100.00;97852.75;4970422;28;20046;-69
2022/10/30 01:11:14;;;;;;;15.60;3.40;;;16.70;99.90;;;16.30;100.00;97863.50;4966913;28;20543;-69
2022/10/30 01:13:44;;;;;;;14.38;2.97;;;16.80;99.90;;;16.44;100.00;97860.03;4969572;28;20062;-69
2022/10/30 01:17:02;;;;;;;11.85;3.17;;;16.80;99.90;;;16.45;100.00;97864.38;4967771;28;20054;-70
2022/10/30 01:19:57;;;;;;;11.48;2.70;;;16.90;99.90;;;16.52;100.00;97860.41;4959961;28;20047;-70
2022/10/30 01:22:51;;;;;;;15.13;3.20;;;17.00;99.90;;;16.78;100.00;97860.56;4968008;28;20047;-69
2022/10/30 01:25:40;;;;;;;10.13;2.72;;;17.00;99.90;;;16.88;100.00;97861.72;4965967;28;20062;-70
2022/10/30 01:28:46;;;;;;;9.95;2.55;;;17.20;99.90;;;16.75;100.00;97861.59;4980188;28;20077;-70
2022/10/30 01:31:43;;;;;;;12.75;2.55;;;17.20;99.90;;;16.72;100.00;97869.66;4965739;28;20054;-68
2022/10/30 01:34:58;;;;;;;11.98;3.13;;;17.20;99.90;;;16.56;100.00;97864.53;4977789;28;20054;-68
2022/10/30 01:37:38;;;;;;;11.07;2.20;;;17.20;99.90;;;16.59;100.00;97866.97;4982484;28;20062;-69
2022/10/30 01:40:13;;;;;;;12.27;2.78;;;17.10;99.90;;;16.34;100.00;97869.41;4979648;28;20065;-68
2022/10/30 01:42:51;;;;;;;9.43;2.78;;;17.00;99.90;;;16.30;100.00;97869.59;4968040;28;20050;-69
2022/10/30 01:45:28;;;;;;;11.68;2.97;;;16.90;99.90;;;16.27;100.00;97863.72;4967639;28;20053;-70
2022/10/30 01:48:04;;;;;;;11.48;2.63;;;16.90;99.90;;;16.18;100.00;97866.88;4963396;28;20059;-70
2022/10/30 01:50:57;;;;;;;14.95;2.83;;;16.80;99.90;;;16.07;100.00;97865.75;4968500;28;20051;-70
2022/10/30 01:53:49;;;;;;;9.20;2.90;;;16.70;99.90;;;16.00;100.00;97863.59;4979528;28;20058;-69
2022/10/30 01:57:05;;;;;;;10.40;3.40;;;16.60;99.90;;;15.85;100.00;97860.09;4965804;28;20055;-68
2022/10/30 01:59:46;;;;;;;19.98;3.35;;;16.50;99.90;;;15.85;100.00;97858.34;4971602;28;20089;-69
2022/10/30 02:02:13;;;;;;;8.63;2.03;;;16.40;99.90;;;15.85;100.00;97857.50;4966341;28;20061;-69
2022/10/30 02:04:41;;;;;;;15.25;3.17;;;16.50;99.90;;;15.92;100.00;97857.97;4965896;28;20050;-70
2022/10/30 02:07:10;;;;;;;10.75;2.75;;;16.50;99.90;;;15.99;100.00;97860.16;4967649;28;20093;-70
2022/10/30 02:09:38;;;;;;;8.57;2.70;;;16.50;99.90;;;15.98;100.00;97863.69;4966821;28;20122;-70
2022/10/30 02:12:06;;;;;;;11.77;3.30;;;16.60;99.90;;;16.06;100.00;97856.22;4967537;28;20448;-70
2022/10/30 02:14:39;;;;;;;14.65;2.92;;;16.60;99.90;;;16.02;100.00;97849.47;4980296;28;20054;-69
2022/10/30 02:17:06;;;;;;;;;;;16.60;99.90;;;15.88;100.00;97849.47;4976303;28;20618;-68
2022/10/30 02:19:34;;;;;;;8.85;2.65;;;16.60;99.90;;;16.00;100.00;97860.97;4953736;28;20024;-70
2022/10/30 02:22:01;;;;;;;10.52;2.85;;;16.60;99.90;;;15.92;100.00;97852.72;4966386;28;20066;-69
2022/10/30 02:24:29;;;;;;;11.52;2.83;;;16.60;99.90;;;15.85;100.00;97847.88;4960505;28;20046;-70
2022/10/30 02:26:56;;;;;;;10.65;2.67;;;16.50;99.90;;;15.69;100.00;97842.69;4964552;28;20062;-69
2022/10/30 02:29:23;;;;;;;14.05;3.33;;;16.40;99.90;;;15.66;100.00;97844.63;4979239;28;20050;-69
2022/10/30 02:31:50;;;;;;;12.90;2.80;;;16.30;99.90;;;15.69;100.00;97839.22;4968218;28;20065;-70
2022/10/30 02:34:17;;;;;;;12.80;3.00;;;16.30;99.90;;;15.74;100.00;97839.84;4964587;28;20051;-68
2022/10/30 02:36:44;;;;;;;11.52;2.78;;;16.30;99.90;;;15.84;100.00;97847.97;4963969;28;20432;-69
2022/10/30 02:39:11;;;;;;;12.23;2.78;;;16.40;99.90;;;15.93;100.00;97836.94;4966618;28;20436;-70
2022/10/30 02:41:38;;;;;;;14.00;2.78;;;16.40;99.90;;;15.93;100.00;97838.72;4967220;28;20426;-69
2022/10/30 02:44:06;;;;;;;10.30;2.63;;;16.40;99.90;;;15.77;100.00;97842.25;4967249;28;20618;-70
2022/10/30 02:46:33;;;;;;;12.43;3.25;;;16.30;99.90;;;15.53;100.00;97827.97;4964320;28;20074;-69
2022/10/30 02:49:01;;;;;;;10.43;2.72;;;16.30;99.90;;;15.32;100.00;97835.28;4967681;28;20050;-69
2022/10/30 02:51:31;;;;;;;11.23;2.83;;;16.10;99.90;;;15.23;100.00;97829.66;4970429;28;20072;-70
2022/10/30 02:53:59;;;;;;;13.48;3.08;;;15.90;99.90;;;14.98;100.00;97822.34;4966201;28;20054;-69
2022/10/30 02:56:26;;;;;;;11.48;3.40;;;15.70;99.90;;;14.89;100.00;97817.66;4965243;28;20321;-70
2022/10/30 02:58:55;;;;;;;12.13;3.20;;;15.50;99.90;;;14.85;100.00;97821.38;4965648;28;20047;-68
2022/10/30 03:01:22;;;;;;;11.20;3.03;;;;;;;14.80;100.00;97820.78;4969224;28;20051;-69
2022/10/30 03:03:50;;;;;;;13.93;3.22;;;;;;;14.67;100.00;97823.25;4963528;28;20049;-69
2022/10/30 03:06:17;;;;;;;12.02;3.20;;;;;;;14.66;100.00;97821.53;4963113;28;20058;-69
2022/10/30 03:08:44;;;;;;;11.90;2.90;;;15.10;99.90;;;14.60;100.00;97817.53;4970086;28;20119;-70
2022/10/30 03:11:16;;;;;;;11.30;2.75;;;15.10;99.90;;;14.58;100.00;97818.53;4971377;28;20074;-69
2022/10/30 03:13:45;;;;;;;11.10;2.70;;;15.10;99.90;;;14.43;100.00;97823.63;4966817;28;20130;-69
2022/10/30 03:16:16;;;;;;;10.95;3.13;;;15.10;99.90;;;14.29;100.00;97820.06;4979446;28;20378;-69
2022/10/30 03:18:44;;;;;;;14.98;3.33;;;15.10;99.90;;;13.96;100.00;97820.94;4967319;28;20085;-68
2022/10/30 03:21:16;;;;;;;19.02;4.00;;;14.90;99.90;;;13.88;100.00;97804.84;4964746;28;20050;-69
2022/10/30 03:23:43;;;;;;;14.50;4.13;;;14.70;99.90;;;13.67;100.00;97812.03;4966423;28;20527;-68
2022/10/30 03:26:11;;;;;;;12.05;3.22;;;14.60;99.90;;;13.54;100.00;97806.56;4965397;28;20687;-70
2022/10/30 03:28:38;;;;;;;10.60;2.97;;;14.50;99.90;;;13.55;100.00;97808.28;4979774;28;20483;-69
2022/10/30 03:31:08;;;;;;;13.63;3.05;;;14.40;99.90;;;13.60;100.00;97808.88;4968302;28;20053;-69
2022/10/30 03:33:36;;;;;;;10.10;3.53;;;14.30;99.90;;;13.45;100.00;97807.88;4962340;28;20337;-69
2022/10/30 03:36:10;;;;;;;10.40;3.10;;;14.30;99.90;;;13.39;100.00;97803.00;4980106;28;20062;-68
2022/10/30 03:38:37;;;;;;;17.60;3.83;;;14.30;99.90;;;13.35;100.00;97804.91;4979858;28;20069;-69
2022/10/30 03:41:05;;;;;;;13.13;3.38;;;14.30;99.90;;;13.61;100.00;97800.13;4962710;28;20042;-69
2022/10/30 03:43:32;;;;;;;15.88;3.42;;;14.20;99.90;;;13.59;100.00;97815.00;4965977;28;20053;-69
2022/10/30 03:45:59;;;;;;;18.00;4.20;;;14.20;99.90;;;13.57;100.00;97809.88;4965863;28;20550;-70
2022/10/30 03:48:29;;;;;;;18.30;4.00;;;14.20;99.90;;;13.42;100.00;97821.09;4963693;28;20051;-69
2022/10/30 03:50:57;;;;;;;9.07;3.10;;;14.20;99.90;;;13.29;100.00;97828.66;4964670;28;20063;-68
2022/10/30 03:53:27;;;;;;;13.07;3.25;;;14.10;99.90;;;13.21;100.00;97825.56;4976247;28;20054;-69
2022/10/30 03:56:00;;;;;;;6.97;3.33;;;14.10;99.90;;;13.29;100.00;97820.84;4965136;28;20141;-69
2022/10/30 03:58:28;;;;;;;12.13;3.33;;;14.00;99.90;;;13.36;100.00;97811.81;4963537;28;20061;-69
2022/10/30 04:01:00;;;;;;;13.18;3.25;;;13.90;99.90;;;13.22;100.00;97815.97;4965226;28;20051;-70
2022/10/30 04:03:28;;;;;;;11.95;3.70;;;13.90;99.90;;;13.18;100.00;97817.88;4966862;28;20048;-70
2022/10/30 04:05:55;;;;;;;8.23;2.97;;;13.90;99.90;;;13.26;100.00;97817.53;4964678;28;20054;-70
2022/10/30 04:08:22;;;;;;;9.65;2.78;;;13.90;99.90;;;13.28;100.00;97821.78;4965622;28;20497;-69
2022/10/30 04:10:48;;;;;;;10.05;3.10;;;13.90;99.90;;;13.30;100.00;97822.53;4967487;28;20046;-68
2022/10/30 04:13:17;;;;;;;9.88;2.78;;;13.90;99.90;;;13.36;100.00;97817.03;4966125;28;20050;-69
2022/10/30 04:15:48;;;;;;;9.13;2.75;;;13.90;99.90;;;13.32;100.00;97825.91;4964228;28;20069;-68
2022/10/30 04:18:24;;;;;;;13.73;2.97;;;13.80;99.90;;;13.28;100.00;97826.16;4966205;28;20046;-69
2022/10/30 04:20:51;;;;;;;13.73;3.28;;;13.90;99.90;;;13.34;100.00;97828.44;4964949;28;20754;-70
2022/10/30 04:23:20;;;;;;;13.52;3.45;;;13.90;99.90;;;13.55;100.00;97824.75;4964126;28;20047;-69
2022/10/30 04:25:47;;;;;;;13.05;3.85;;;14.10;99.90;;;13.75;100.00;97828.97;4965494;28;20054;-69
2022/10/30 04:28:14;;;;;;;13.00;5.25;;;14.20;99.90;;;14.13;100.00;97826.09;4965752;28;20054;-70
2022/10/30 04:30:41;;;;;;;15.82;5.35;;;14.30;99.90;;;14.25;100.00;97831.59;4965734;28;20043;-69
2022/10/30 04:33:12;;;;;;;15.75;5.43;;;14.60;99.90;;;14.20;100.00;97824.84;4962645;28;21115;-69
2022/10/30 04:35:40;;;;;;;12.93;3.53;;;14.70;99.90;;;14.33;100.00;97827.66;4962616;28;20050;-69
2022/10/30 04:38:12;;;;;;;10.93;2.92;;;14.80;99.90;;;14.51;100.00;97831.06;4963119;28;20068;-70
2022/10/30 04:40:42;;;;;;;14.20;3.30;;;14.90;99.90;;;14.56;100.00;97833.44;4965778;28;20141;-69
2022/10/30 04:43:11;;;;;;;11.23;2.88;;;15.00;99.90;;;14.50;100.00;97831.13;4963741;28;20157;-68
2022/10/30 04:45:39;;;;;;;14.77;4.35;;;15.10;99.90;;;14.48;100.00;97832.97;4963260;28;20058;-70
2022/10/30 04:48:07;;;;;;;13.80;3.45;;;15.10;99.90;;;14.55;100.00;97834.34;4975992;28;20055;-69
2022/10/30 04:50:35;;;;;;;9.15;2.85;;;15.10;99.90;;;14.52;100.00;97834.50;4965677;28;20051;-69
2022/10/30 04:53:09;;;;;;;17.50;3.33;;;15.10;99.90;;;14.41;100.00;97828.09;4961442;28;20504;-70
2022/10/30 04:55:36;;;;;;;15.40;2.60;;;15.10;99.90;;;14.31;100.00;97828.69;4968678;28;20411;-69
2022/10/30 04:58:03;;;;;;;9.00;3.13;;;15.00;99.90;;;14.32;100.00;97836.44;4965887;28;20075;-70
2022/10/30 05:00:30;;;;;;;12.23;2.53;;;15.00;99.90;;;14.32;100.00;97830.34;4961848;28;20047;-69
2022/10/30 05:03:01;;;;;;;10.15;3.67;;;14.90;99.90;;;14.23;100.00;97835.16;4964020;28;20473;-70
2022/10/30 05:05:31;;;;;;;8.52;2.80;;;14.90;99.90;;;14.27;100.00;97832.38;4966154;28;20105;-69
2022/10/30 05:07:58;;;;;;;10.60;2.97;;;14.90;99.90;;;14.25;100.00;97829.00;4961564;28;20056;-70
2022/10/30 05:10:25;;;;;;;9.13;2.50;;;14.80;99.90;;;14.20;100.00;97840.50;4960656;28;20596;-69
2022/10/30 05:12:53;;;;;;;12.85;3.25;;;14.80;99.90;;;14.13;100.00;97835.72;4966472;28;20054;-70
2022/10/30 05:15:20;;;;;;;16.35;4.00;;;14.80;99.90;;;13.96;100.00;97837.44;4970715;28;20528;-69
2022/10/30 05:17:52;;;;;;;15.05;2.83;;;14.70;99.90;;;13.84;100.00;97832.84;4966221;28;20161;-70
2022/10/30 05:20:20;;;;;;;9.63;2.80;;;14.60;99.90;;;13.62;100.00;97814.03;4967774;28;20058;-70
2022/10/30 05:22:57;;;;;;;11.10;3.40;;;14.40;99.90;;;13.33;100.00;97822.38;4968708;28;20195;-69
2022/10/30 05:25:25;;;;;;;11.32;3.80;;;14.20;99.90;;;13.13;100.00;97828.53;4964730;28;20051;-69
2022/10/30 05:28:04;;;;;;;15.65;3.55;;;14.00;99.90;;;12.99;100.00;97812.75;4967501;28;20055;-70
2022/10/30 05:30:34;;;;;;;13.60;3.17;;;13.80;99.90;;;13.06;100.00;97816.72;4968063;28;20480;-69
2022/10/30 05:33:06;;;;;;;9.55;3.00;;;13.60;99.90;;;12.95;100.00;97822.47;4982499;28;20050;-70
2022/10/30 05:35:34;;;;;;;12.45;3.95;;;13.50;99.90;;;12.63;100.00;97820.53;4965140;28;20066;-69
2022/10/30 05:38:04;;;;;;;11.80;3.38;;;13.40;99.90;;;12.51;100.00;97817.59;4968834;28;20050;-69
2022/10/30 05:40:33;;;;;;;12.18;3.42;;;13.30;99.90;;;12.44;100.00;97811.00;4968495;28;20050;-70
2022/10/30 05:42:59;;;;;;;12.55;4.20;;;13.30;99.90;;;12.32;100.00;97811.56;4968135;28;20402;-70
2022/10/30 05:45:27;;;;;;;14.80;4.63;;;13.20;99.90;;;11.88;100.00;97807.47;4965829;28;20051;-69
2022/10/30 05:48:00;;;;;;;13.90;4.40;;;13.00;99.90;;;11.73;100.00;97806.31;4965384;28;20062;-68
2022/10/30 05:50:28;;;;;;;13.18;4.13;;;12.80;99.90;;;11.51;100.00;97797.75;4966638;28;20063;-70
2022/10/30 05:53:01;;;;;;;18.17;5.32;;;12.70;99.90;;;11.38;100.00;97792.25;4967386;28;20142;-69
2022/10/30 05:55:28;;;;;;;;;;;12.50;99.90;;;11.36;100.00;97790.59;4979372;28;20054;-69
2022/10/30 05:58:02;;;;;;;14.15;4.45;;;12.40;99.90;;;11.26;100.00;97785.78;4968758;28;19941;-69
2022/10/30 06:00:33;;;;;;;14.52;4.68;;;12.30;99.90;;;11.23;100.00;97782.50;4968017;28;20072;-69
2022/10/30 06:03:11;;;;;;;15.25;4.57;;;12.20;99.90;;;11.16;100.00;97781.06;4965463;28;20051;-69
2022/10/30 06:05:38;;;;;;;14.70;5.60;;;12.10;99.90;;;11.13;100.00;97771.66;4965583;28;20046;-70
2022/10/30 06:08:06;;;;;;;19.35;5.43;;;12.10;99.90;;;11.02;100.00;97768.66;4981778;28;20401;-69
2022/10/30 06:10:33;;;;;;;10.25;4.30;;;12.00;99.90;;;11.05;100.00;97766.75;4967474;28;20066;-69
2022/10/30 06:13:05;;;;;;;16.38;6.28;;;12.00;99.90;;;11.08;100.00;97761.47;4965679;28;20485;-69
2022/10/30 06:15:32;;;;;;;25.80;8.68;;;11.90;99.90;;;10.99;100.00;97764.44;4979563;28;20745;-70
2022/10/30 06:17:59;;;;;;;22.17;8.40;;;11.80;99.90;;;10.83;100.00;97771.13;4967072;28;20091;-69
2022/10/30 06:20:29;;;;;;;16.13;6.78;;;11.80;99.90;;;10.76;100.00;97760.16;4967846;28;20050;-69
2022/10/30 06:23:06;;;;;;;19.30;6.13;;;11.70;99.90;;;10.81;100.00;97760.84;4980025;28;20047;-69
2022/10/30 06:25:35;;;;;;;16.35;5.93;;;11.70;99.90;;;10.85;100.00;97758.94;4967050;28;20059;-69
2022/10/30 06:28:09;;;;;;;15.98;5.78;;;11.70;99.90;;;10.92;100.00;97762.13;4985220;28;20542;-68
2022/10/30 06:30:36;;;;;;;12.30;5.25;;;11.70;99.90;;;10.78;100.00;97755.75;4983070;28;20528;-68
2022/10/30 06:33:05;;;;;;;10.63;4.10;;;11.60;99.90;;;10.73;100.00;97760.28;4963785;28;20050;-69
2022/10/30 06:35:32;;;;;;;12.80;4.13;;;11.60;99.90;;;10.76;100.00;97756.72;4964618;28;20050;-70
2022/10/30 06:37:59;;;;;;;16.63;5.15;;;11.60;99.90;;;10.74;100.00;97756.81;4968751;28;20038;-69
2022/10/30 06:40:28;;;;;;;17.85;5.68;;;11.60;99.90;;;10.70;100.00;97757.81;4960736;28;20137;-69
2022/10/30 06:42:56;;;;;;;14.00;5.07;;;11.60;99.90;;;10.75;100.00;97755.03;4979771;28;20069;-69
2022/10/30 06:45:24;;;;;;;12.38;5.60;;;11.60;99.90;;;10.88;100.00;97745.84;4968122;28;20129;-69
2022/10/30 06:47:51;;;;;;;13.43;4.97;;;11.60;99.90;;;11.09;100.00;97751.91;4966453;28;20054;-69
2022/10/30 06:50:23;;;;;;;15.00;5.32;;;11.70;99.90;;;11.00;100.00;97750.53;4965960;28;20110;-68
2022/10/30 06:52:50;;;;;;;13.52;5.78;;;11.70;99.90;;;10.95;100.00;97755.06;4966986;28;20061;-69
2022/10/30 06:55:17;;;;;;;9.90;4.85;;;11.70;99.90;;;10.93;100.00;97759.47;4965456;28;20109;-69
2022/10/30 06:57:44;;;;;;;16.33;6.20;;;11.70;99.90;;;10.76;100.00;97759.31;4964867;28;20138;-70
2022/10/30 07:00:12;;;;;;;15.68;5.65;;;11.70;99.90;;;10.99;100.00;97756.66;4964821;28;20043;-70
2022/10/30 07:02:39;;;;;;;13.30;5.40;;;11.70;99.90;;;10.97;100.00;97765.38;4963926;28;20054;-71
2022/10/30 07:05:06;;;;;;;15.43;5.70;;;11.70;99.90;;;10.77;100.00;97771.41;4965804;28;20591;-70
2022/10/30 07:07:33;;;;;;;15.13;5.80;;;11.60;99.90;;;10.98;100.00;97760.13;4978017;28;20625;-69
2022/10/30 07:10:00;;;;;;;15.70;5.90;;;11.70;99.90;;;10.97;100.00;97761.06;4969978;28;20074;-70
2022/10/30 07:12:27;;;;;;;14.70;5.63;;;11.70;99.90;;;11.10;100.00;97756.19;4966764;28;20062;-70
2022/10/30 07:14:54;;;;;;;12.68;5.45;;;11.70;99.90;;;11.14;100.00;97752.53;4967284;28;20058;-70
2022/10/30 07:17:21;;;;;;;14.25;5.25;;;11.70;99.90;;;11.20;100.00;97754.91;4967181;28;20054;-69
2022/10/30 07:19:47;;;;;;;15.85;4.70;;;11.70;99.90;;;11.20;100.00;97752.31;4966657;28;20046;-71
2022/10/30 07:22:14;;;;;;;10.18;5.03;;;11.80;99.90;;;11.27;100.00;97750.28;4965219;28;20046;-70
2022/10/30 07:24:41;;;;;;;14.25;6.22;;;11.80;99.90;;;11.19;100.00;97752.34;4965790;28;20110;-71
2022/10/30 07:27:08;;;;;;;12.98;6.45;;;11.90;99.90;;;11.19;100.00;97748.00;4967967;28;20061;-70
2022/10/30 07:29:35;;;;;;;16.55;6.53;;;11.90;99.90;;;11.27;100.00;97745.94;4966173;28;20100;-70
2022/10/30 07:32:03;;;;;;;23.30;9.80;;;12.00;99.90;;;11.04;100.00;97753.84;4965066;28;20587;-71
2022/10/30 07:34:30;;;;;;;22.38;10.52;;;12.00;99.90;;;11.18;100.00;97751.50;4964611;28;20054;-70
2022/10/30 07:36:58;;;;;;;21.17;11.13;;;12.00;99.90;;;11.34;100.00;97748.28;4985135;28;20606;-70
2022/10/30 07:39:24;;;;;;;25.30;11.50;;;12.10;99.90;;;11.37;100.00;97755.94;4961893;28;20603;-70
2022/10/30 07:41:51;;;;;;;24.45;9.95;;;12.10;99.90;;;11.43;100.00;97750.47;4965954;28;20054;-69
2022/10/30 07:44:18;;;;;;;25.08;9.88;;;12.10;99.90;;;11.35;100.00;97758.59;4962000;28;20057;-69
2022/10/30 07:46:45;;;;;;;19.38;9.35;;;12.20;99.90;;;11.31;100.00;97757.00;4970206;28;20057;-70
2022/10/30 07:49:12;;;;;;;19.70;8.13;;;12.20;99.90;;;11.23;100.00;97761.72;4966759;28;20662;-70
2022/10/30 07:51:39;;;;;;;16.73;7.55;;;12.20;99.90;;;11.22;100.00;97758.28;4963447;28;20062;-70
2022/10/30 07:54:05;;;;;;;16.08;7.32;;;12.20;99.90;;;11.33;100.00;97757.81;4967451;28;20058;-69
2022/10/30 07:56:32;;;;;;;17.15;6.65;;;12.30;99.90;;;11.63;100.00;97767.78;4967712;28;20062;-70
2022/10/30 07:58:59;;;;;;;19.15;7.30;;;12.30;99.90;;;11.58;100.00;97760.19;4963530;28;21490;-69
2022/10/30 08:01:26;;;;;;;15.65;7.10;;;12.40;99.90;;;11.73;100.00;97769.09;4949459;28;20069;-70
2022/10/30 08:03:53;;;;;;;15.48;6.45;;;12.60;99.90;;;11.91;100.00;97770.06;4965187;28;20046;-70
2022/10/30 08:06:20;;;;;;;16.17;7.10;;;12.70;99.90;;;12.08;100.00;97769.28;4962207;28;20046;-69
2022/10/30 08:08:52;;;;;;;15.05;6.75;;;12.80;99.90;;;12.25;100.00;97766.75;4960867;28;20121;-70
2022/10/30 08:11:19;;;;;;;15.73;8.48;;;13.00;99.90;;;12.51;100.00;97769.91;4965628;28;20050;-70
2022/10/30 08:13:46;;;;;;;16.95;7.80;;;13.10;99.90;;;12.65;100.00;97770.06;4968445;28;20070;-70
2022/10/30 08:16:13;;;;;;;17.38;7.55;;;13.30;99.90;;;12.90;100.00;97768.91;4970795;28;20050;-70
2022/10/30 08:18:41;;;;;;;12.18;6.68;;;13.50;99.90;;;13.14;100.00;97765.09;4972495;28;20062;-69
2022/10/30 08:21:09;;;;;;;18.55;7.90;;;13.80;99.90;;;13.52;100.00;97764.91;4973911;28;20138;-71
2022/10/30 08:23:36;;;;;;;21.42;11.88;;;14.10;99.90;;;13.86;100.00;97762.31;4966242;28;20512;-70
2022/10/30 08:26:03;;;;;;;16.48;6.57;;;14.30;99.90;;;14.34;100.00;97771.88;4965588;28;20062;-70
2022/10/30 08:28:31;;;;;;;15.50;5.47;;;14.70;99.90;;;14.64;100.00;97777.25;4969747;28;20090;-70
2022/10/30 08:31:00;;;;;;;9.50;3.65;;;15.00;99.90;;;15.14;100.00;97790.97;4970967;28;20084;-70
2022/10/30 08:33:27;;;;;;;13.90;4.13;;;;;;;15.54;100.00;97800.88;4975024;28;20061;-70
2022/10/30 08:35:57;;;;;;;9.93;2.80;;;15.80;99.90;;;15.98;100.00;97803.47;4981839;28;20062;-70
2022/10/30 08:38:25;;;;;;;6.93;2.20;;;16.20;99.90;;;16.48;100.00;97822.25;4978481;28;20055;-70
2022/10/30 08:40:52;;;;;;;8.27;2.00;;;16.60;99.90;;;16.70;100.00;97834.84;4983817;28;20046;-70
2022/10/30 08:43:20;;;;;;;5.50;1.40;;;17.00;99.90;;;16.85;100.00;97839.13;4968140;28;20057;-69
2022/10/30 08:45:47;;;;;;;8.65;2.15;;;17.20;99.90;;;17.24;100.00;97847.13;4968157;28;20425;-69
2022/10/30 08:48:15;;;;;;;8.85;2.08;;;17.50;99.90;;;17.50;100.00;97856.78;4973634;28;20523;-70
2022/10/30 08:50:43;;;;;;;10.25;2.35;;;17.80;99.90;;;17.66;100.00;97855.75;4978337;28;20513;-70
2022/10/30 08:53:13;;;;;;;10.00;2.17;;;18.10;99.90;;;17.77;100.00;97850.63;4984668;28;20076;-70
2022/10/30 08:55:41;;;;;;;8.60;2.40;;;18.20;99.90;;;17.68;100.00;97844.19;4971486;28;20049;-70
2022/10/30 08:58:08;;;;;;;7.35;2.20;;;18.30;99.90;;;17.85;100.00;97855.38;4969833;28;20054;-70
2022/10/30 09:00:35;;;;;;;10.30;1.90;;;18.30;99.90;;;17.88;100.00;97847.28;4972152;28;20046;-70
2022/10/30 09:03:02;;;;;;;5.90;1.80;;;18.30;99.90;;;18.07;100.00;97860.84;4970221;28;20062;-70
2022/10/30 09:05:30;;;;;;;13.93;2.45;;;18.50;99.90;;;18.23;100.00;97859.81;4966945;28;20426;-70
2022/10/30 09:07:59;;;;;;;9.85;2.08;;;18.70;99.90;;;18.21;100.00;97851.19;4963980;28;20060;-70
2022/10/30 09:10:28;;;;;;;5.93;2.10;;;18.80;99.90;;;18.19;100.00;97853.91;4966108;28;20356;-70
2022/10/30 09:12:57;;;;;;;10.18;2.22;;;18.80;99.90;;;18.26;100.00;97863.03;4967840;28;20043;-70
2022/10/30 09:15:25;;;;;;;11.57;2.30;;;18.80;99.90;;;18.32;100.00;97852.13;4968662;28;20050;-68
2022/10/30 09:18:01;;;;;;;11.65;2.28;;;18.90;99.90;;;18.39;100.00;97857.78;4984729;28;20058;-69
2022/10/30 09:20:30;;;;;;;8.05;2.35;;;18.90;99.90;;;18.42;100.00;97864.63;4969151;28;20050;-70
2022/10/30 09:22:57;;;;;;;7.40;1.77;;;19.00;99.90;;;18.52;100.00;97855.13;4964647;28;20047;-70
2022/10/30 09:25:25;;;;;;;8.73;2.40;;;19.20;99.90;;;18.54;100.00;97861.13;4967496;28;20527;-71
2022/10/30 09:27:52;;;;;;;10.18;2.20;;;19.20;99.90;;;18.60;100.00;97865.94;4969354;28;20133;-70
2022/10/30 09:30:19;;;;;;;10.88;2.17;;;19.40;99.90;;;18.75;100.00;97864.03;4966867;28;20055;-71
2022/10/30 09:32:57;;;;;;;9.25;2.28;;;19.40;99.90;;;18.80;100.00;97870.66;4959600;28;20047;-69
2022/10/30 09:35:25;;;;;;;7.35;2.22;;;;;;;18.86;100.00;97855.38;4977422;28;20523;-70
2022/10/30 09:37:53;;;;;;;8.02;2.28;;;19.50;99.90;;;18.88;100.00;97866.63;4975759;28;20515;-70
2022/10/30 09:41:12;;;;;;;7.47;1.75;;;19.50;99.90;;;18.92;100.00;97865.47;4966066;28;20125;-69
2022/10/30 09:44:12;;;;;;;5.63;1.88;;;19.60;99.90;;;19.07;100.00;97877.53;4963387;28;20050;-70
2022/10/30 09:47:11;;;;;;;10.95;2.60;;;19.70;99.90;;;19.16;100.00;97878.66;4976748;28;20043;-69
2022/10/30 09:49:56;;;;;;;10.02;2.30;;;19.80;99.90;;;19.11;100.00;97870.25;4976325;28;20569;-71
2022/10/30 09:52:40;;;;;;;8.88;2.20;;;19.80;99.90;;;19.17;100.00;97878.53;4964049;28;20049;-69
2022/10/30 09:55:26;;;;;;;8.98;2.67;;;19.80;99.90;;;19.25;100.00;97870.09;4980674;28;20050;-70
2022/10/30 09:58:11;;;;;;;8.48;2.28;;;20.00;99.90;;;19.34;100.00;97865.91;4971694;28;20043;-70
2022/10/30 10:01:00;;;;;;;8.65;2.60;;;19.90;99.90;;;19.43;100.00;97873.13;4962197;28;20050;-70
2022/10/30 10:03:55;;;;;;;12.85;2.25;;;20.10;99.90;;;19.59;100.00;97872.84;4957559;28;20066;-69
2022/10/30 10:06:24;;;;;;;8.60;2.30;;;20.10;99.90;;;19.65;100.00;97875.84;4966475;28;20046;-69
2022/10/30 10:09:02;;;;;;;8.07;2.20;;;20.20;99.90;;;19.68;100.00;97866.88;4968893;28;20174;-70
2022/10/30 10:11:37;;;;;;;6.57;2.00;;;20.20;99.90;;;19.85;100.00;97874.41;4972320;28;20050;-70
2022/10/30 10:14:14;;;;;;;9.60;1.70;;;20.40;99.90;;;20.00;100.00;97880.31;4954757;28;20133;-71
2022/10/30 10:16:44;;;;;;;6.88;2.08;;;20.50;99.90;;;19.97;100.00;97880.53;4954736;28;20047;-69
2022/10/30 10:19:33;;;;;;;7.93;2.10;;;20.50;99.90;;;20.04;100.00;97881.72;4970466;28;20511;-70
2022/10/30 10:22:02;;;;;;;8.43;2.03;;;20.60;99.90;;;20.13;100.00;97869.66;4958528;28;20062;-71
2022/10/30 10:24:34;;;;;;;7.60;1.77;;;20.80;99.90;;;20.17;100.00;97872.91;4961791;28;20057;-68
2022/10/30 10:27:55;;;;;;;7.35;1.88;;;20.80;99.90;;;20.27;100.00;97879.13;4978758;28;20114;-69